createdAt,value
2018-08-19T00:02:22.571Z,18.50
2018-08-19T00:05:05.734Z,18.40
2018-08-19T00:07:36.200Z,18.40
2018-08-19T00:10:12.190Z,18.20
2018-08-19T00:12:46.886Z,18.20
2018-08-19T00:15:18.503Z,18.10
2018-08-19T00:17:48.571Z,18.00
2018-08-19T00:20:17.464Z,18.00
2018-08-19T00:22:51.310Z,17.90
2018-08-19T00:25:31.887Z,17.90
2018-08-19T00:28:01.406Z,17.90
2018-08-19T00:30:32.869Z,17.80
2018-08-19T00:33:04.043Z,17.80
2018-08-19T00:35:33.981Z,17.80
2018-08-19T00:38:04.098Z,17.70
2018-08-19T00:40:34.117Z,17.70
2018-08-19T00:43:02.908Z,17.70
2018-08-19T00:45:32.584Z,17.60
2018-08-19T00:48:01.621Z,17.60
2018-08-19T00:50:31.452Z,17.60
2018-08-19T00:53:04.289Z,17.60
2018-08-19T00:55:41.303Z,17.50
2018-08-19T00:58:17.513Z,17.50
2018-08-19T01:00:46.815Z,17.40
2018-08-19T01:03:15.617Z,17.40
2018-08-19T01:05:46.591Z,17.40
2018-08-19T01:08:16.293Z,17.40
2018-08-19T01:10:45.143Z,17.40
2018-08-19T01:13:14.485Z,17.30
2018-08-19T01:15:43.260Z,17.30
2018-08-19T01:18:12.940Z,17.20
2018-08-19T01:20:41.756Z,17.20
2018-08-19T01:23:11.301Z,17.20
2018-08-19T01:25:39.986Z,17.10
2018-08-19T01:28:09.667Z,17.10
2018-08-19T01:30:38.493Z,17.10
2018-08-19T01:33:07.239Z,17.00
2018-08-19T01:35:41.192Z,17.00
2018-08-19T01:38:11.175Z,16.90
2018-08-19T01:40:39.920Z,16.90
2018-08-19T01:43:08.597Z,16.90
2018-08-19T01:45:37.211Z,16.90
2018-08-19T01:48:05.945Z,16.80
2018-08-19T01:50:34.885Z,16.80
2018-08-19T01:53:03.642Z,16.80
2018-08-19T01:55:32.679Z,16.60
2018-08-19T01:58:02.288Z,16.70
2018-08-19T02:00:31.115Z,16.70
2018-08-19T02:03:03.684Z,16.70
2018-08-19T02:05:32.462Z,16.70
2018-08-19T02:08:03.002Z,16.70
2018-08-19T02:10:33.832Z,16.80
2018-08-19T02:13:03.472Z,16.80
2018-08-19T02:15:33.000Z,16.70
2018-08-19T02:18:05.628Z,16.80
2018-08-19T02:20:37.983Z,16.80
2018-08-19T02:23:12.658Z,16.90
2018-08-19T02:25:48.092Z,17.00
2018-08-19T02:28:21.669Z,17.00
2018-08-19T02:30:55.800Z,17.00
2018-08-19T02:33:24.544Z,17.00
2018-08-19T02:36:00.692Z,17.00
2018-08-19T02:38:30.023Z,17.10
2018-08-19T02:40:58.864Z,17.10
2018-08-19T02:43:27.528Z,17.20
2018-08-19T02:45:56.333Z,17.20
2018-08-19T02:48:41.490Z,17.20
2018-08-19T02:51:15.018Z,17.20
2018-08-19T02:53:46.092Z,17.20
2018-08-19T02:56:16.888Z,17.20
2018-08-19T02:58:47.479Z,17.20
2018-08-19T03:01:18.858Z,17.20
2018-08-19T03:03:49.458Z,17.20
2018-08-19T03:06:19.730Z,17.20
2018-08-19T03:08:53.893Z,17.20
2018-08-19T03:11:26.966Z,17.30
2018-08-19T03:13:56.903Z,17.30
2018-08-19T03:16:26.314Z,17.30
2018-08-19T03:18:55.885Z,17.30
2018-08-19T03:21:24.661Z,17.20
2018-08-19T03:23:55.235Z,17.20
2018-08-19T03:26:27.937Z,17.30
2018-08-19T03:28:59.085Z,17.30
2018-08-19T03:31:28.493Z,17.30
2018-08-19T03:33:58.882Z,17.30
2018-08-19T03:36:27.609Z,17.30
2018-08-19T03:39:09.082Z,17.20
2018-08-19T03:41:37.866Z,17.20
2018-08-19T03:44:08.870Z,17.30
2018-08-19T03:46:37.901Z,17.20
2018-08-19T03:49:11.546Z,17.20
2018-08-19T03:51:40.315Z,17.20
2018-08-19T03:54:12.017Z,17.10
2018-08-19T03:56:41.356Z,17.10
2018-08-19T03:59:12.113Z,17.00
2018-08-19T04:01:43.530Z,17.00
2018-08-19T04:04:18.135Z,17.00
2018-08-19T04:06:48.097Z,16.90
2018-08-19T04:09:16.791Z,16.90
2018-08-19T04:11:54.641Z,16.80
2018-08-19T04:14:29.239Z,16.80
2018-08-19T04:17:03.953Z,16.80
2018-08-19T04:19:34.550Z,16.70
2018-08-19T04:22:06.141Z,16.70
2018-08-19T04:24:40.325Z,16.60
2018-08-19T04:27:13.498Z,16.60
2018-08-19T04:29:42.246Z,16.60
2018-08-19T04:32:18.942Z,16.50
2018-08-19T04:34:47.620Z,16.60
2018-08-19T04:37:18.148Z,16.50
2018-08-19T04:39:48.250Z,16.50
2018-08-19T04:42:18.350Z,16.50
2018-08-19T04:44:52.595Z,16.50
2018-08-19T04:47:27.971Z,16.50
2018-08-19T04:49:58.064Z,16.50
2018-08-19T04:52:29.711Z,16.40
2018-08-19T04:54:58.565Z,16.50
2018-08-19T04:57:27.326Z,16.50
2018-08-19T04:59:57.506Z,16.50
2018-08-19T05:02:27.731Z,16.40
2018-08-19T05:04:56.486Z,16.40
2018-08-19T05:07:25.203Z,16.40
2018-08-19T05:09:54.434Z,16.50
2018-08-19T05:12:25.091Z,16.50
2018-08-19T05:14:54.620Z,16.40
2018-08-19T05:17:24.224Z,16.40
2018-08-19T05:20:01.934Z,16.50
2018-08-19T05:22:32.259Z,16.50
2018-08-19T05:25:03.824Z,16.50
2018-08-19T05:27:35.004Z,16.40
2018-08-19T05:30:09.118Z,16.50
2018-08-19T05:32:43.471Z,16.50
2018-08-19T05:35:13.812Z,16.60
2018-08-19T05:37:45.246Z,16.60
2018-08-19T05:40:15.398Z,16.60
2018-08-19T05:42:47.243Z,16.60
2018-08-19T05:45:17.185Z,16.70
2018-08-19T05:47:56.760Z,16.70
2018-08-19T05:50:26.563Z,16.70
2018-08-19T05:52:59.859Z,16.70
2018-08-19T05:55:28.742Z,16.70
2018-08-19T05:57:58.036Z,16.80
2018-08-19T06:00:32.615Z,16.80
2018-08-19T06:03:04.119Z,16.90
2018-08-19T06:05:32.863Z,16.90
2018-08-19T06:08:07.718Z,17.00
2018-08-19T06:10:36.572Z,17.10
2018-08-19T06:13:09.999Z,17.20
2018-08-19T06:15:41.943Z,17.30
2018-08-19T06:18:15.311Z,17.20
2018-08-19T06:20:44.743Z,17.30
2018-08-19T06:23:14.388Z,17.20
2018-08-19T06:25:45.060Z,17.30
2018-08-19T06:28:15.451Z,17.40
2018-08-19T06:30:45.432Z,17.40
2018-08-19T06:33:21.164Z,17.40
2018-08-19T06:35:50.216Z,17.40
2018-08-19T06:38:31.058Z,17.50
2018-08-19T06:41:02.586Z,17.60
2018-08-19T06:43:32.242Z,17.60
2018-08-19T06:46:02.726Z,17.70
2018-08-19T06:48:34.856Z,17.70
2018-08-19T06:51:08.794Z,17.80
2018-08-19T06:53:38.434Z,17.80
2018-08-19T06:56:08.364Z,17.90
2018-08-19T06:58:38.297Z,17.90
2018-08-19T07:01:08.203Z,17.90
2018-08-19T07:03:45.341Z,18.00
2018-08-19T07:06:16.866Z,18.10
2018-08-19T07:08:45.693Z,18.20
2018-08-19T07:11:18.293Z,18.50
2018-08-19T07:13:48.997Z,18.70
2018-08-19T07:16:21.147Z,18.90
2018-08-19T07:18:51.866Z,18.90
2018-08-19T07:21:20.632Z,19.00
2018-08-19T07:23:50.868Z,19.00
2018-08-19T07:26:21.266Z,19.00
2018-08-19T07:28:50.748Z,19.10
2018-08-19T07:31:19.596Z,19.20
2018-08-19T07:33:51.013Z,19.20
2018-08-19T07:36:21.675Z,19.30
2018-08-19T07:38:53.185Z,19.40
2018-08-19T07:41:23.352Z,19.40
2018-08-19T07:43:58.557Z,19.50
2018-08-19T07:46:30.276Z,19.50
2018-08-19T07:49:01.735Z,19.60
2018-08-19T07:51:41.367Z,19.70
2018-08-19T07:54:14.872Z,19.80
2018-08-19T07:56:44.177Z,19.80
2018-08-19T07:59:15.741Z,19.90
2018-08-19T08:01:44.417Z,20.00
2018-08-19T08:04:15.800Z,20.10
2018-08-19T08:06:47.148Z,20.10
2018-08-19T08:09:15.993Z,20.20
2018-08-19T08:11:45.522Z,20.20
2018-08-19T08:14:15.988Z,20.30
2018-08-19T08:16:50.433Z,20.40
2018-08-19T08:19:21.680Z,20.50
2018-08-19T08:21:50.766Z,20.60
2018-08-19T08:24:21.513Z,20.60
2018-08-19T08:26:57.273Z,20.60
2018-08-19T08:29:25.998Z,20.70
2018-08-19T08:31:58.263Z,20.70
2018-08-19T08:34:30.630Z,20.70
2018-08-19T08:37:03.537Z,20.70
2018-08-19T08:39:47.726Z,20.70
2018-08-19T08:42:18.236Z,20.80
2018-08-19T08:44:51.469Z,21.00
2018-08-19T08:47:24.259Z,20.90
2018-08-19T08:49:54.179Z,20.90
2018-08-19T08:52:28.540Z,21.00
2018-08-19T08:55:04.366Z,21.10
2018-08-19T08:57:35.288Z,21.10
2018-08-19T09:00:09.947Z,21.20
2018-08-19T09:02:39.510Z,21.30
2018-08-19T09:05:10.878Z,21.10
2018-08-19T09:07:43.656Z,21.20
2018-08-19T09:10:14.767Z,21.50
2018-08-19T09:12:49.643Z,21.50
2018-08-19T09:15:18.467Z,21.60
2018-08-19T09:17:47.359Z,21.60
2018-08-19T09:20:16.053Z,21.60
2018-08-19T09:22:45.554Z,21.70
2018-08-19T09:25:14.993Z,21.70
2018-08-19T09:27:44.211Z,21.70
2018-08-19T09:30:19.422Z,21.70
2018-08-19T09:32:57.864Z,21.70
2018-08-19T09:35:29.192Z,21.70
2018-08-19T09:38:04.122Z,21.70
2018-08-19T09:40:33.571Z,21.80
2018-08-19T09:43:02.211Z,21.90
2018-08-19T09:45:30.998Z,22.00
2018-08-19T09:47:59.824Z,22.20
2018-08-19T09:50:28.425Z,22.30
2018-08-19T09:52:57.083Z,22.40
2018-08-19T09:55:32.853Z,22.50
2018-08-19T09:58:02.175Z,22.50
2018-08-19T10:00:36.095Z,22.60
2018-08-19T10:03:04.867Z,22.60
2018-08-19T10:05:34.984Z,22.60
2018-08-19T10:08:03.668Z,22.60
2018-08-19T10:10:35.688Z,22.70
2018-08-19T10:13:04.866Z,22.80
2018-08-19T10:15:34.136Z,22.90
2018-08-19T10:18:02.892Z,22.90
2018-08-19T10:20:31.618Z,22.90
2018-08-19T10:23:00.669Z,23.00
2018-08-19T10:25:29.629Z,23.00
2018-08-19T10:27:58.363Z,23.10
2018-08-19T10:30:27.040Z,23.20
2018-08-19T10:33:02.500Z,23.40
2018-08-19T10:35:31.518Z,23.40
2018-08-19T10:38:01.086Z,23.20
2018-08-19T10:40:29.826Z,23.10
2018-08-19T10:43:02.989Z,23.10
2018-08-19T10:45:31.922Z,23.30
2018-08-19T10:48:00.563Z,23.40
2018-08-19T10:50:30.326Z,23.60
2018-08-19T10:52:58.989Z,23.60
2018-08-19T10:55:28.147Z,23.70
2018-08-19T10:57:57.128Z,23.80
2018-08-19T11:00:33.165Z,23.80
2018-08-19T11:03:08.503Z,23.90
2018-08-19T11:05:41.822Z,24.20
2018-08-19T11:08:11.358Z,24.30
2018-08-19T11:10:40.302Z,24.60
2018-08-19T11:13:09.026Z,24.70
2018-08-19T11:15:42.620Z,24.50
2018-08-19T11:18:32.928Z,24.40
2018-08-19T11:22:06.847Z,24.30
2018-08-19T11:24:38.287Z,24.20
2018-08-19T11:27:07.525Z,24.10
2018-08-19T11:29:39.135Z,24.30
2018-08-19T11:32:07.840Z,24.60
2018-08-19T11:34:36.533Z,25.00
2018-08-19T11:37:05.499Z,25.60
2018-08-19T11:39:39.454Z,25.80
2018-08-19T11:42:09.532Z,25.90
2018-08-19T11:44:39.371Z,25.80
2018-08-19T11:47:08.054Z,25.70
2018-08-19T11:49:37.342Z,25.50
2018-08-19T11:52:06.726Z,25.50
2018-08-19T11:54:35.972Z,25.70
2018-08-19T11:57:05.790Z,25.80
2018-08-19T11:59:42.228Z,25.70
2018-08-19T12:02:16.769Z,25.90
2018-08-19T12:04:46.134Z,25.90
2018-08-19T12:07:14.746Z,25.90
2018-08-19T12:09:45.699Z,26.00
2018-08-19T12:12:14.449Z,26.30
2018-08-19T12:14:43.122Z,26.30
2018-08-19T12:17:12.856Z,26.40
2018-08-19T12:19:42.998Z,26.40
2018-08-19T12:22:11.782Z,26.40
2018-08-19T12:24:48.360Z,26.20
2018-08-19T12:27:18.741Z,26.20
2018-08-19T12:29:47.778Z,26.30
2018-08-19T12:32:22.210Z,26.30
2018-08-19T12:34:53.108Z,26.20
2018-08-19T12:37:23.149Z,26.30
2018-08-19T12:39:52.229Z,26.40
2018-08-19T12:42:20.941Z,26.40
2018-08-19T12:44:54.245Z,26.40
2018-08-19T12:47:26.120Z,26.20
2018-08-19T12:49:56.178Z,26.30
2018-08-19T12:52:26.082Z,26.40
2018-08-19T12:55:03.425Z,26.50
2018-08-19T12:57:32.439Z,26.70
2018-08-19T13:00:07.241Z,26.90
2018-08-19T13:02:47.630Z,26.80
2018-08-19T13:05:18.112Z,27.00
2018-08-19T13:07:47.327Z,26.90
2018-08-19T13:10:16.584Z,26.80
2018-08-19T13:13:00.795Z,26.90
2018-08-19T13:15:30.652Z,26.90
2018-08-19T13:17:59.507Z,27.10
2018-08-19T13:20:28.580Z,27.10
2018-08-19T13:23:02.933Z,27.10
2018-08-19T13:25:31.908Z,27.20
2018-08-19T13:28:00.542Z,27.40
2018-08-19T13:30:29.686Z,27.50
2018-08-19T13:32:58.576Z,27.60
2018-08-19T13:35:27.490Z,27.70
2018-08-19T13:37:57.951Z,27.80
2018-08-19T13:40:27.920Z,27.80
2018-08-19T13:42:56.798Z,27.80
2018-08-19T13:45:27.462Z,27.80
2018-08-19T13:47:56.345Z,27.80
2018-08-19T13:50:26.355Z,27.90
2018-08-19T13:52:55.175Z,28.00
2018-08-19T13:55:24.048Z,28.00
2018-08-19T14:00:34.586Z,27.90
2018-08-19T14:03:03.674Z,27.80
2018-08-19T14:05:32.436Z,27.90
2018-08-19T14:08:01.415Z,28.00
2018-08-19T14:10:31.567Z,28.00
2018-08-19T14:13:00.575Z,28.10
2018-08-19T14:15:31.028Z,28.30
2018-08-19T14:18:02.102Z,28.30
2018-08-19T14:20:33.084Z,28.20
2018-08-19T14:23:01.675Z,28.30
2018-08-19T14:25:30.477Z,28.20
2018-08-19T14:28:00.323Z,28.10
2018-08-19T14:30:29.079Z,28.20
2018-08-19T14:32:57.664Z,28.20
2018-08-19T14:35:28.355Z,27.90
2018-08-19T14:38:20.505Z,27.90
2018-08-19T14:40:53.307Z,27.70
2018-08-19T14:43:24.550Z,27.90
2018-08-19T14:45:53.940Z,28.00
2018-08-19T14:48:24.299Z,28.20
2018-08-19T14:50:53.734Z,28.20
2018-08-19T14:53:23.348Z,28.20
2018-08-19T14:56:02.962Z,28.30
2018-08-19T14:58:31.934Z,28.20
2018-08-19T15:01:04.176Z,28.00
2018-08-19T15:03:34.665Z,28.10
2018-08-19T15:06:04.248Z,28.20
2018-08-19T15:08:37.229Z,28.20
2018-08-19T15:11:05.991Z,28.40
2018-08-19T15:13:35.206Z,28.10
2018-08-19T15:16:05.818Z,28.20
2018-08-19T15:18:34.687Z,28.10
2018-08-19T15:21:03.745Z,27.90
2018-08-19T15:23:32.444Z,28.10
2018-08-19T15:26:01.345Z,28.20
2018-08-19T15:28:30.265Z,28.30
2018-08-19T15:30:58.869Z,28.40
2018-08-19T15:33:27.476Z,28.10
2018-08-19T15:35:56.158Z,27.90
2018-08-19T15:38:28.320Z,27.90
2018-08-19T15:40:57.556Z,27.90
2018-08-19T15:43:26.445Z,27.50
2018-08-19T15:45:55.439Z,27.20
2018-08-19T15:48:25.545Z,27.20
2018-08-19T15:50:58.515Z,27.90
2018-08-19T15:53:30.101Z,28.50
2018-08-19T15:55:58.854Z,28.90
2018-08-19T15:58:29.340Z,28.80
2018-08-19T16:00:58.339Z,28.40
2018-08-19T16:03:27.083Z,28.00
2018-08-19T16:05:56.206Z,28.10
2018-08-19T16:08:24.919Z,28.50
2018-08-19T16:10:57.837Z,28.60
2018-08-19T16:13:27.159Z,29.00
2018-08-19T16:15:56.516Z,29.30
2018-08-19T16:18:25.412Z,29.40
2018-08-19T16:20:59.820Z,29.60
2018-08-19T16:23:30.248Z,29.60
2018-08-19T16:26:04.006Z,29.10
2018-08-19T16:28:34.210Z,28.60
2018-08-19T16:31:06.470Z,28.20
2018-08-19T16:33:36.034Z,27.80
2018-08-19T16:36:04.660Z,27.40
2018-08-19T16:38:34.253Z,27.20
2018-08-19T16:41:03.625Z,27.00
2018-08-19T16:43:32.619Z,27.00
2018-08-19T16:46:01.798Z,27.10
2018-08-19T16:48:31.725Z,27.10
2018-08-19T16:51:00.878Z,27.10
2018-08-19T16:53:29.450Z,27.00
2018-08-19T16:55:58.565Z,26.60
2018-08-19T16:58:27.736Z,26.60
2018-08-19T17:00:58.327Z,26.50
2018-08-19T17:03:39.958Z,26.30
2018-08-19T17:06:12.440Z,26.10
2018-08-19T17:08:42.692Z,25.90
2018-08-19T17:11:12.869Z,25.60
2018-08-19T17:13:41.742Z,25.50
2018-08-19T17:16:10.661Z,25.30
2018-08-19T17:18:39.641Z,25.20
2018-08-19T17:21:08.413Z,25.10
2018-08-19T17:23:37.815Z,25.10
2018-08-19T17:26:13.745Z,25.00
2018-08-19T17:28:42.607Z,25.00
2018-08-19T17:31:11.572Z,24.90
2018-08-19T17:33:40.211Z,24.90
2018-08-19T17:36:11.197Z,24.90
2018-08-19T17:38:39.839Z,24.90
2018-08-19T17:41:12.104Z,24.90
2018-08-19T17:43:42.408Z,24.90
2018-08-19T17:46:15.803Z,24.80
2018-08-19T17:48:45.460Z,24.80
2018-08-19T17:51:26.157Z,24.70
2018-08-19T17:53:55.173Z,24.70
2018-08-19T17:56:26.288Z,24.60
2018-08-19T17:58:55.525Z,24.50
2018-08-19T18:01:24.771Z,24.50
2018-08-19T18:03:53.365Z,24.50
2018-08-19T18:06:22.019Z,24.50
2018-08-19T18:08:52.881Z,24.50
2018-08-19T18:11:21.842Z,24.50
2018-08-19T18:13:50.926Z,24.40
2018-08-19T18:16:19.755Z,24.30
2018-08-19T18:18:49.743Z,24.20
2018-08-19T18:21:18.311Z,24.20
2018-08-19T18:23:48.894Z,24.10
2018-08-19T18:26:17.738Z,24.00
2018-08-19T18:28:48.740Z,23.90
2018-08-19T18:31:22.838Z,23.80
2018-08-19T18:33:56.466Z,23.70
2018-08-19T18:36:26.198Z,23.60
2018-08-19T18:38:57.400Z,23.70
2018-08-19T18:41:34.114Z,23.60
2018-08-19T18:44:04.303Z,23.60
2018-08-19T18:46:33.716Z,23.60
2018-08-19T18:49:12.808Z,23.60
2018-08-19T18:51:43.283Z,23.60
2018-08-19T18:54:20.199Z,23.50
2018-08-19T18:56:48.911Z,23.50
2018-08-19T18:59:17.568Z,23.50
2018-08-19T19:01:47.893Z,23.40
2018-08-19T19:04:17.951Z,23.40
2018-08-19T19:06:47.770Z,23.40
2018-08-19T19:09:16.582Z,23.30
2018-08-19T19:11:48.964Z,23.20
2018-08-19T19:14:23.592Z,23.20
2018-08-19T19:16:55.068Z,23.20
2018-08-19T19:19:24.002Z,23.20
2018-08-19T19:21:59.096Z,23.20
2018-08-19T19:24:45.804Z,23.20
2018-08-19T19:27:14.418Z,23.20
2018-08-19T19:29:49.474Z,23.10
2018-08-19T19:32:24.523Z,23.10
2018-08-19T19:34:55.206Z,23.00
2018-08-19T19:37:23.911Z,23.00
2018-08-19T19:40:12.521Z,22.90
2018-08-19T19:42:41.592Z,22.90
2018-08-19T19:45:10.530Z,22.80
2018-08-19T19:47:39.170Z,22.70
2018-08-19T19:50:12.080Z,22.50
2018-08-19T19:52:45.459Z,22.40
2018-08-19T19:55:14.159Z,22.30
2018-08-19T19:57:43.187Z,22.20
2018-08-19T20:00:13.941Z,22.20
2018-08-19T20:02:42.971Z,22.10
2018-08-19T20:05:17.234Z,22.10
2018-08-19T20:07:46.282Z,22.10
2018-08-19T20:10:26.606Z,22.10
2018-08-19T20:12:56.132Z,22.10
2018-08-19T20:15:25.361Z,22.00
2018-08-19T20:17:54.712Z,21.90
2018-08-19T20:20:23.329Z,21.80
2018-08-19T20:22:51.980Z,21.70
2018-08-19T20:25:20.610Z,21.70
2018-08-19T20:27:54.970Z,21.60
2018-08-19T20:30:23.637Z,21.60
2018-08-19T20:32:52.644Z,21.60
2018-08-19T20:35:21.854Z,21.70
2018-08-19T20:37:51.389Z,21.70
2018-08-19T20:40:20.303Z,21.70
2018-08-19T20:42:51.592Z,21.70
2018-08-19T20:45:20.994Z,21.70
2018-08-19T20:47:50.095Z,21.60
2018-08-19T20:50:19.007Z,21.60
2018-08-19T20:52:48.974Z,21.60
2018-08-19T20:55:17.711Z,21.60
2018-08-19T20:57:46.409Z,21.70
2018-08-19T21:00:15.149Z,21.60
2018-08-19T21:02:43.839Z,21.70
2018-08-19T21:05:12.473Z,21.70
2018-08-19T21:07:43.534Z,21.70
2018-08-19T21:10:12.139Z,21.70
2018-08-19T21:12:40.757Z,21.60
2018-08-19T21:15:09.438Z,21.60
2018-08-19T21:17:38.117Z,21.60
2018-08-19T21:20:06.823Z,21.60
2018-08-19T21:22:35.474Z,21.60
2018-08-19T21:25:04.164Z,21.70
2018-08-19T21:27:32.796Z,21.70
2018-08-19T21:30:01.503Z,21.70
2018-08-19T21:32:30.116Z,21.70
2018-08-19T21:34:58.794Z,21.70
2018-08-19T21:37:34.492Z,21.70
2018-08-19T21:40:04.013Z,21.70
2018-08-19T21:42:43.853Z,21.70
2018-08-19T21:45:12.518Z,21.70
2018-08-19T21:47:41.209Z,21.70
2018-08-19T21:50:09.901Z,21.70
2018-08-19T21:52:47.955Z,21.70
2018-08-19T21:55:16.565Z,21.60
2018-08-19T21:57:45.179Z,21.60
2018-08-19T22:00:14.100Z,21.60
2018-08-19T22:02:48.313Z,21.50
2018-08-19T22:05:17.083Z,21.50
2018-08-19T22:07:45.806Z,21.50
2018-08-19T22:10:14.427Z,21.50
2018-08-19T22:12:47.245Z,21.50
2018-08-19T22:15:16.019Z,21.50
2018-08-19T22:17:44.683Z,21.40
2018-08-19T22:20:13.363Z,21.40
2018-08-19T22:22:41.937Z,21.40
2018-08-19T22:25:10.624Z,21.30
2018-08-19T22:27:39.194Z,21.30
2018-08-19T22:30:07.832Z,21.20
2018-08-19T22:32:36.428Z,21.20
2018-08-19T22:35:05.136Z,21.20
2018-08-19T22:37:33.860Z,21.20
2018-08-19T22:40:02.586Z,21.20
2018-08-19T22:42:31.178Z,21.20
2018-08-19T22:44:59.774Z,21.20
2018-08-19T22:47:43.048Z,21.20
2018-08-19T22:50:11.697Z,21.20
2018-08-19T22:52:40.304Z,21.30
2018-08-19T22:55:08.971Z,21.30
2018-08-19T22:57:37.651Z,21.20
2018-08-19T23:00:07.385Z,21.20
2018-08-19T23:02:36.020Z,21.10
2018-08-19T23:05:04.867Z,21.10
2018-08-19T23:07:33.477Z,21.10
2018-08-19T23:10:02.064Z,21.10
2018-08-19T23:12:30.684Z,21.10
2018-08-19T23:15:40.759Z,21.10
2018-08-19T23:18:09.416Z,21.00
2018-08-19T23:20:38.070Z,21.10
2018-08-19T23:23:06.788Z,21.00
2018-08-19T23:25:35.342Z,21.00
2018-08-19T23:28:04.018Z,21.00
2018-08-19T23:30:32.690Z,21.00
2018-08-19T23:33:01.325Z,20.90
2018-08-19T23:35:29.923Z,20.90
2018-08-19T23:37:58.811Z,20.90
2018-08-19T23:40:27.521Z,20.90
2018-08-19T23:42:56.143Z,20.90
2018-08-19T23:45:24.713Z,20.90
2018-08-19T23:47:53.330Z,20.90
2018-08-19T23:50:21.978Z,20.90
2018-08-19T23:52:50.645Z,20.90
2018-08-19T23:55:19.246Z,20.90
2018-08-19T23:57:47.922Z,20.90
